Time;durP1;ratioP1;P1;durP2;ratioP2;P2;SDS_P1;SDS_P2;PMS_P1;PMS_P2;Temp;Humidity;BMP_temperature;BMP_pressure;BME280_temperature;BME280_humidity;BME280_pressure;Samples;Min_cycle;Max_cycle;Signal;HPM_P1;HPM_P2
2022/10/14 00:02:15;;;;;;;27.02;19.75;;;18.90;85.60;;;;;;6400831;22;20022;-82
2022/10/14 00:04:41;;;;;;;27.20;17.75;;;18.90;86.10;;;;;;6401914;22;20055;-81
2022/10/14 00:07:06;;;;;;;29.10;17.55;;;18.90;85.20;;;;;;6401271;22;20006;-81
2022/10/14 00:09:32;;;;;;;26.08;17.33;;;18.90;84.80;;;;;;6402063;22;20396;-82
2022/10/14 00:11:58;;;;;;;27.75;17.88;;;18.80;84.50;;;;;;6401524;22;20076;-82
2022/10/14 00:14:23;;;;;;;23.10;15.98;;;18.80;84.60;;;;;;6401524;22;20415;-81
2022/10/14 00:16:53;;;;;;;23.13;16.20;;;18.70;84.50;;;;;;6401218;22;20001;-82
2022/10/14 00:19:19;;;;;;;25.05;17.33;;;18.70;84.40;;;;;;6401654;22;19994;-82
2022/10/14 00:21:45;;;;;;;25.52;18.17;;;18.70;84.70;;;;;;6401565;22;20002;-83
2022/10/14 00:24:12;;;;;;;23.35;18.65;;;18.60;84.30;;;;;;6401828;22;20033;-84
2022/10/14 00:26:39;;;;;;;27.15;19.08;;;18.50;84.70;;;;;;6400988;22;20028;-82
2022/10/14 00:29:10;;;;;;;27.52;16.33;;;18.50;84.90;;;;;;6402421;22;19998;-81
2022/10/14 00:31:35;;;;;;;26.38;18.00;;;18.40;85.20;;;;;;6402023;22;20084;-82
2022/10/14 00:34:02;;;;;;;28.75;17.58;;;18.40;85.10;;;;;;6401280;22;20026;-81
2022/10/14 00:36:27;;;;;;;29.38;18.42;;;18.40;84.90;;;;;;6401153;22;19998;-81
2022/10/14 00:38:53;;;;;;;28.77;17.55;;;18.30;85.40;;;;;;6401693;22;19998;-81
2022/10/14 00:41:26;;;;;;;28.63;17.85;;;18.30;86.00;;;;;;6401791;22;20002;-81
2022/10/14 00:43:59;;;;;;;32.40;20.05;;;18.20;85.70;;;;;;6401725;22;20029;-80
2022/10/14 00:46:29;;;;;;;25.02;18.40;;;18.20;85.70;;;;;;6401150;22;19999;-80
2022/10/14 00:48:57;;;;;;;23.60;17.80;;;18.10;85.80;;;;;;6401345;22;20069;-80
2022/10/14 00:51:22;;;;;;;28.15;19.23;;;18.10;86.30;;;;;;6401342;22;20002;-81
2022/10/14 00:53:48;;;;;;;29.67;18.63;;;18.10;86.50;;;;;;6402575;22;20436;-81
2022/10/14 00:56:18;;;;;;;30.35;17.80;;;18.10;86.70;;;;;;6402699;22;20731;-81
2022/10/14 00:58:44;;;;;;;;;;;18.10;86.90;;;;;;6404286;22;20001;-81
2022/10/14 01:01:10;;;;;;;29.77;19.13;;;18.10;87.10;;;;;;6403938;22;19940;-81
2022/10/14 01:03:36;;;;;;;28.70;20.45;;;18.10;87.20;;;;;;6403546;22;20353;-82
2022/10/14 01:06:58;;;;;;;32.97;19.83;;;18.10;86.70;;;;;;6374402;22;20037;-82
2022/10/14 01:09:53;;;;;;;32.38;21.48;;;18.10;87.00;;;;;;6306579;22;20030;-82
2022/10/14 01:12:44;;;;;;;39.08;24.23;;;18.10;86.80;;;;;;6305769;22;20019;-82
2022/10/14 01:16:02;;;;;;;36.85;24.05;;;18.00;87.00;;;;;;6359574;22;20004;-81
2022/10/14 01:18:52;;;;;;;33.85;23.15;;;18.00;87.20;;;;;;6381450;22;20029;-82
2022/10/14 01:21:30;;;;;;;38.63;23.95;;;17.80;87.20;;;;;;6403674;22;20043;-82
2022/10/14 01:24:16;;;;;;;40.40;23.23;;;17.70;87.50;;;;;;6403046;22;20006;-82
2022/10/14 01:26:54;;;;;;;36.80;22.88;;;17.70;87.50;;;;;;6402603;22;20006;-83
2022/10/14 01:29:45;;;;;;;36.53;22.33;;;17.60;87.70;;;;;;6403934;22;20002;-83
2022/10/14 01:32:20;;;;;;;32.42;23.10;;;17.60;87.60;;;;;;6403335;22;20013;-83
2022/10/14 01:35:00;;;;;;;30.85;21.67;;;17.50;87.80;;;;;;6403916;22;20037;-77
2022/10/14 01:37:27;;;;;;;;;;;17.50;87.90;;;;;;6403745;22;20050;-78
2022/10/14 01:40:01;;;;;;;30.92;20.80;;;17.50;87.50;;;;;;6403718;22;19950;-77
2022/10/14 01:42:32;;;;;;;29.23;20.15;;;17.50;88.00;;;;;;6373305;22;20392;-76
2022/10/14 01:45:07;;;;;;;28.83;21.38;;;17.60;88.00;;;;;;6402585;22;20319;-76
2022/10/14 01:47:35;;;;;;;30.00;21.05;;;17.60;87.70;;;;;;6402586;22;19998;-77
2022/10/14 01:50:07;;;;;;;37.17;23.70;;;17.50;87.60;;;;;;6403419;22;20068;-76
2022/10/14 01:52:40;;;;;;;31.45;20.80;;;17.50;87.50;;;;;;6401648;22;20009;-76
2022/10/14 01:55:12;;;;;;;29.42;20.60;;;17.40;87.70;;;;;;6403050;22;20029;-76
2022/10/14 01:57:40;;;;;;;33.80;23.17;;;17.40;87.70;;;;;;6402091;22;20002;-76
2022/10/14 02:00:06;;;;;;;29.48;20.45;;;17.30;87.10;;;;;;6403312;22;20045;-76
2022/10/14 02:02:36;;;;;;;30.98;22.55;;;17.30;87.40;;;;;;6401519;22;20050;-76
2022/10/14 02:05:10;;;;;;;30.70;22.27;;;17.30;87.00;;;;;;6402436;22;20069;-76
2022/10/14 02:07:42;;;;;;;31.83;20.88;;;17.30;87.20;;;;;;6402065;22;19998;-76
2022/10/14 02:10:20;;;;;;;26.55;20.25;;;17.30;87.00;;;;;;6402395;22;20416;-76
2022/10/14 02:13:08;;;;;;;30.73;22.13;;;17.40;87.60;;;;;;6401265;22;20006;-76
2022/10/14 02:16:01;;;;;;;32.22;21.05;;;17.40;87.00;;;;;;6374074;22;20281;-76
2022/10/14 02:18:40;;;;;;;29.65;20.10;;;17.30;86.90;;;;;;6402461;22;19997;-76
2022/10/14 02:21:33;;;;;;;29.33;20.85;;;17.30;86.90;;;;;;6402957;22;20055;-76
2022/10/14 02:24:01;;;;;;;29.38;21.30;;;17.40;86.30;;;;;;6402251;22;19998;-77
2022/10/14 02:26:28;;;;;;;30.52;20.63;;;17.40;86.70;;;;;;6402483;22;20021;-76
2022/10/14 02:28:56;;;;;;;26.60;18.60;;;17.40;86.20;;;;;;6375028;22;20006;-76
2022/10/14 02:31:23;;;;;;;33.65;20.55;;;17.40;86.40;;;;;;6402489;22;20040;-76
2022/10/14 02:33:54;;;;;;;42.05;22.48;;;17.40;86.50;;;;;;6402512;22;20039;-76
2022/10/14 02:36:23;;;;;;;27.88;21.23;;;17.40;86.40;;;;;;6402255;22;20055;-76
2022/10/14 02:38:51;;;;;;;29.63;20.93;;;17.30;86.60;;;;;;6402677;22;19994;-76
2022/10/14 02:41:20;;;;;;;29.88;21.27;;;17.30;85.90;;;;;;6401871;22;20349;-75
2022/10/14 02:43:46;;;;;;;28.67;21.17;;;17.30;86.50;;;;;;6402105;22;20328;-76
2022/10/14 02:46:12;;;;;;;28.85;20.20;;;17.20;86.10;;;;;;6401778;22;20002;-75
2022/10/14 02:48:38;;;;;;;37.53;20.83;;;17.30;86.90;;;;;;6402133;22;20006;-75
2022/10/14 02:51:04;;;;;;;29.88;21.40;;;17.30;86.20;;;;;;6401779;22;20347;-76
2022/10/14 02:53:29;;;;;;;31.35;21.27;;;17.30;85.90;;;;;;6402751;22;20065;-76
2022/10/14 02:55:55;;;;;;;28.52;20.67;;;17.20;86.10;;;;;;6402210;22;20415;-73
2022/10/14 02:58:21;;;;;;;25.90;19.65;;;17.20;86.10;;;;;;6402340;22;20707;-74
2022/10/14 03:00:50;;;;;;;31.40;20.50;;;17.20;86.50;;;;;;6373799;22;20570;-75
2022/10/14 03:03:16;;;;;;;32.67;19.92;;;17.20;86.10;;;;;;6402352;22;20013;-75
2022/10/14 03:05:42;;;;;;;34.05;21.40;;;17.20;86.30;;;;;;6402455;22;20411;-74
2022/10/14 03:08:08;;;;;;;32.00;21.58;;;17.20;85.80;;;;;;6402244;22;20080;-77
2022/10/14 03:10:33;;;;;;;26.92;19.45;;;17.10;85.90;;;;;;6401127;22;20044;-79
2022/10/14 03:12:59;;;;;;;32.90;20.23;;;17.10;86.60;;;;;;6401926;22;19994;-78
2022/10/14 03:15:25;;;;;;;24.95;18.02;;;17.10;86.40;;;;;;6402161;22;20001;-76
2022/10/14 03:17:51;;;;;;;29.13;21.63;;;17.10;86.10;;;;;;6402190;22;19998;-77
2022/10/14 03:20:17;;;;;;;26.00;19.83;;;17.00;86.20;;;;;;6373762;22;20009;-76
2022/10/14 03:22:43;;;;;;;31.88;20.88;;;17.00;86.30;;;;;;6373594;22;20404;-75
2022/10/14 03:25:09;;;;;;;32.05;21.30;;;17.10;85.90;;;;;;6374235;22;20044;-80
2022/10/14 03:27:34;;;;;;;33.05;20.88;;;17.00;86.10;;;;;;6373844;22;19998;-80
2022/10/14 03:30:00;;;;;;;32.00;20.35;;;17.00;86.20;;;;;;6401740;22;19997;-78
2022/10/14 03:32:26;;;;;;;29.58;19.88;;;17.00;86.30;;;;;;6400906;22;20010;-78
2022/10/14 03:34:51;;;;;;;31.42;21.05;;;16.90;87.00;;;;;;6373632;22;20447;-78
2022/10/14 03:37:17;;;;;;;29.75;20.80;;;16.90;87.10;;;;;;6402193;22;20415;-76
2022/10/14 03:39:43;;;;;;;27.67;20.02;;;16.80;87.20;;;;;;6401736;22;20001;-76
2022/10/14 03:42:09;;;;;;;28.65;20.63;;;16.70;87.90;;;;;;6401079;22;20029;-77
2022/10/14 03:44:35;;;;;;;31.38;20.95;;;16.70;88.20;;;;;;6374100;22;20032;-76
2022/10/14 03:47:01;;;;;;;30.08;20.35;;;16.60;88.80;;;;;;6402106;22;20002;-76
2022/10/14 03:49:26;;;;;;;31.25;22.00;;;16.60;89.10;;;;;;6401891;22;20327;-76
2022/10/14 03:51:52;;;;;;;28.88;19.17;;;16.60;89.20;;;;;;6401520;22;20392;-76
2022/10/14 03:54:18;;;;;;;28.48;20.05;;;16.50;89.40;;;;;;6402291;22;20406;-75
2022/10/14 03:56:43;;;;;;;27.63;20.23;;;16.60;89.70;;;;;;6373416;22;20021;-74
2022/10/14 03:59:09;;;;;;;27.35;18.92;;;16.70;88.80;;;;;;6401766;22;20324;-75
2022/10/14 04:01:35;;;;;;;32.20;20.30;;;16.60;89.00;;;;;;6401638;22;20328;-75
2022/10/14 04:04:00;;;;;;;29.25;20.08;;;16.60;89.00;;;;;;6374049;22;20006;-75
2022/10/14 04:06:26;;;;;;;26.75;18.20;;;16.50;89.10;;;;;;6401269;22;20297;-76
2022/10/14 04:08:52;;;;;;;29.45;20.52;;;16.50;89.10;;;;;;6401205;22;20073;-75
2022/10/14 04:11:18;;;;;;;32.63;21.38;;;16.60;89.00;;;;;;6373268;22;20110;-75
2022/10/14 04:13:44;;;;;;;24.80;18.88;;;16.60;88.90;;;;;;6401164;22;20068;-75
2022/10/14 04:16:10;;;;;;;26.73;19.08;;;16.60;88.70;;;;;;6401429;22;19998;-75
2022/10/14 04:18:37;;;;;;;27.50;20.50;;;16.60;88.60;;;;;;6401055;22;19995;-75
2022/10/14 04:21:09;;;;;;;26.38;18.88;;;16.70;88.30;;;;;;6372643;22;20009;-76
2022/10/14 04:23:35;;;;;;;29.20;19.45;;;16.70;87.90;;;;;;6401336;22;20099;-76
2022/10/14 04:26:05;;;;;;;30.00;19.73;;;16.80;87.70;;;;;;6373595;22;20431;-75
2022/10/14 04:28:37;;;;;;;31.10;21.10;;;16.70;87.10;;;;;;6400799;22;20068;-75
2022/10/14 04:31:04;;;;;;;34.13;20.75;;;16.80;87.20;;;;;;6372234;22;20006;-77
2022/10/14 04:33:30;;;;;;;28.58;21.10;;;16.70;87.30;;;;;;6401616;22;20005;-76
2022/10/14 04:35:57;;;;;;;30.27;21.80;;;16.60;87.20;;;;;;6400831;22;20014;-77
2022/10/14 04:38:23;;;;;;;31.52;20.27;;;16.60;86.90;;;;;;6401293;22;19998;-77
2022/10/14 04:40:50;;;;;;;32.08;21.50;;;16.60;87.80;;;;;;6400891;22;20084;-76
2022/10/14 04:43:15;;;;;;;30.10;20.55;;;16.60;87.60;;;;;;6401620;22;20420;-77
2022/10/14 04:45:41;;;;;;;28.13;19.58;;;16.70;87.80;;;;;;6372393;22;20041;-77
2022/10/14 04:48:07;;;;;;;31.48;21.20;;;16.70;87.30;;;;;;6401349;22;20073;-77
2022/10/14 04:50:32;;;;;;;36.45;21.10;;;16.70;86.90;;;;;;6400277;22;20327;-78
2022/10/14 04:52:58;;;;;;;30.27;20.88;;;16.70;86.90;;;;;;6373376;22;20002;-77
2022/10/14 04:55:24;;;;;;;29.33;20.33;;;16.70;87.00;;;;;;6401234;22;20021;-77
2022/10/14 04:57:49;;;;;;;28.13;19.80;;;16.60;87.00;;;;;;6401817;22;19998;-76
2022/10/14 05:00:15;;;;;;;29.42;19.08;;;16.60;87.20;;;;;;6400871;22;20002;-77
2022/10/14 05:02:41;;;;;;;28.33;19.58;;;16.60;87.00;;;;;;6401268;22;20408;-76
2022/10/14 05:05:08;;;;;;;32.58;21.77;;;16.60;87.40;;;;;;6400902;22;20297;-76
2022/10/14 05:07:34;;;;;;;29.42;20.30;;;16.40;87.80;;;;;;6373371;22;20371;-76
2022/10/14 05:10:00;;;;;;;33.78;20.23;;;16.30;88.20;;;;;;6372583;22;20050;-76
2022/10/14 05:12:27;;;;;;;30.48;20.05;;;16.30;88.50;;;;;;6373572;22;20010;-77
2022/10/14 05:14:53;;;;;;;32.15;20.50;;;16.20;88.60;;;;;;6401155;22;20005;-77
2022/10/14 05:17:20;;;;;;;30.10;20.92;;;16.20;89.00;;;;;;6401317;22;19994;-76
2022/10/14 05:19:45;;;;;;;31.05;21.08;;;16.10;89.00;;;;;;6400229;22;20586;-77
2022/10/14 05:22:11;;;;;;;26.63;19.55;;;16.10;89.40;;;;;;6399054;22;19998;-77
2022/10/14 05:24:37;;;;;;;29.88;20.30;;;16.00;89.70;;;;;;6400371;22;20430;-74
2022/10/14 05:27:03;;;;;;;29.15;19.20;;;16.10;89.40;;;;;;6399999;22;20081;-74
2022/10/14 05:29:29;;;;;;;29.05;20.20;;;16.20;89.20;;;;;;6399604;22;20028;-75
2022/10/14 05:31:54;;;;;;;29.75;17.95;;;16.20;89.00;;;;;;6400571;22;20300;-75
2022/10/14 05:34:20;;;;;;;28.08;19.77;;;16.10;88.80;;;;;;6400461;22;20010;-75
2022/10/14 05:36:46;;;;;;;28.13;18.52;;;16.00;88.60;;;;;;6399952;22;20006;-75
2022/10/14 05:39:11;;;;;;;31.58;20.35;;;16.00;89.10;;;;;;6400195;22;20331;-73
2022/10/14 05:41:38;;;;;;;30.20;19.05;;;15.90;89.10;;;;;;6373749;22;20002;-74
2022/10/14 05:44:04;;;;;;;29.13;18.45;;;16.00;89.40;;;;;;6374124;22;20477;-74
2022/10/14 05:46:29;;;;;;;29.65;19.23;;;15.90;89.30;;;;;;6402061;22;20047;-74
2022/10/14 05:48:56;;;;;;;34.35;17.63;;;15.90;89.00;;;;;;6402513;22;19994;-74
2022/10/14 05:51:22;;;;;;;28.02;18.02;;;16.00;89.50;;;;;;6403172;22;20423;-74
2022/10/14 05:53:48;;;;;;;23.42;17.52;;;16.10;89.30;;;;;;6400768;22;20002;-73
2022/10/14 05:56:14;;;;;;;24.90;16.92;;;16.10;88.90;;;;;;6401816;22;20412;-80
2022/10/14 05:58:40;;;;;;;28.33;16.52;;;16.30;88.20;;;;;;6402106;22;19999;-79
2022/10/14 06:01:08;;;;;;;25.70;16.75;;;16.30;88.10;;;;;;6373951;22;20224;-79
2022/10/14 06:03:34;;;;;;;26.38;16.55;;;16.40;87.90;;;;;;6402394;22;20420;-79
2022/10/14 06:06:00;;;;;;;26.30;16.55;;;16.40;87.20;;;;;;6401564;22;20010;-74
2022/10/14 06:08:40;;;;;;;25.38;17.58;;;16.40;87.30;;;;;;6401471;22;20006;-74
2022/10/14 06:11:07;;;;;;;22.27;14.98;;;16.40;87.50;;;;;;6373724;22;20040;-81
2022/10/14 06:13:33;;;;;;;20.80;13.15;;;16.50;87.50;;;;;;6400879;22;20059;-78
2022/10/14 06:16:08;;;;;;;19.73;14.05;;;16.60;87.60;;;;;;6402185;22;20001;-84
2022/10/14 06:18:34;;;;;;;22.67;16.30;;;16.70;87.50;;;;;;6374110;22;20105;-80
2022/10/14 06:21:00;;;;;;;23.98;16.27;;;16.80;86.60;;;;;;6402983;22;20431;-79
2022/10/14 06:23:26;;;;;;;27.67;16.77;;;16.80;86.30;;;;;;6401251;22;20009;-79
2022/10/14 06:25:52;;;;;;;24.73;17.15;;;16.80;86.20;;;;;;6401612;22;20301;-80
2022/10/14 06:28:19;;;;;;;29.75;17.42;;;16.80;86.20;;;;;;6403057;22;20377;-79
2022/10/14 06:30:51;;;;;;;26.30;17.58;;;16.80;86.70;;;;;;6402013;22;20424;-80
2022/10/14 06:33:18;;;;;;;21.80;16.40;;;16.70;86.30;;;;;;6402705;22;20073;-79
2022/10/14 06:35:43;;;;;;;22.77;16.02;;;16.60;86.50;;;;;;6398300;22;20013;-78
2022/10/14 06:38:09;;;;;;;25.75;16.35;;;16.60;86.50;;;;;;6400187;22;19994;-78
2022/10/14 06:40:36;;;;;;;26.73;16.65;;;16.60;87.40;;;;;;6394747;22;20048;-77
2022/10/14 06:43:02;;;;;;;26.42;16.55;;;16.60;86.80;;;;;;6400889;22;20436;-72
2022/10/14 06:45:27;;;;;;;23.13;16.73;;;16.60;86.60;;;;;;6400596;22;20005;-72
2022/10/14 06:47:53;;;;;;;32.30;17.98;;;16.60;87.00;;;;;;6399377;22;20002;-72
2022/10/14 06:50:19;;;;;;;25.92;16.80;;;16.60;87.00;;;;;;6371855;22;20032;-80
2022/10/14 06:52:45;;;;;;;23.67;16.67;;;16.60;86.90;;;;;;6400077;22;19994;-78
2022/10/14 06:55:11;;;;;;;21.50;15.50;;;16.60;87.00;;;;;;6400721;22;20021;-78
2022/10/14 06:57:37;;;;;;;20.13;14.02;;;16.70;87.00;;;;;;6400403;22;20412;-78
2022/10/14 07:00:04;;;;;;;24.77;16.80;;;16.80;86.70;;;;;;6401236;22;19994;-79
2022/10/14 07:02:30;;;;;;;25.90;16.52;;;16.90;86.70;;;;;;6401630;22;20339;-78
2022/10/14 07:04:55;;;;;;;24.85;17.50;;;16.90;86.50;;;;;;6398634;22;19998;-78
2022/10/14 07:07:21;;;;;;;23.20;16.20;;;16.90;86.60;;;;;;6397669;22;19998;-78
2022/10/14 07:09:46;;;;;;;23.15;16.60;;;16.90;86.90;;;;;;6401424;22;20461;-79
2022/10/14 07:12:12;;;;;;;20.95;15.52;;;16.90;86.70;;;;;;6401124;22;20419;-79
2022/10/14 07:14:38;;;;;;;21.20;15.95;;;17.00;86.60;;;;;;6402863;22;20002;-79
2022/10/14 07:17:03;;;;;;;27.52;16.70;;;17.00;86.30;;;;;;6402241;22;19998;-81
2022/10/14 07:19:29;;;;;;;22.92;15.30;;;17.10;86.40;;;;;;6400737;22;20006;-81
2022/10/14 07:21:55;;;;;;;23.00;14.65;;;17.20;86.10;;;;;;6402682;22;20073;-81
2022/10/14 07:24:20;;;;;;;21.42;15.07;;;17.30;85.60;;;;;;6402313;22;20450;-82
2022/10/14 07:26:46;;;;;;;28.10;15.80;;;17.40;85.00;;;;;;6402456;22;20332;-79
2022/10/14 07:29:12;;;;;;;22.55;14.75;;;17.60;86.00;;;;;;6401750;22;20005;-82
2022/10/14 07:31:37;;;;;;;27.48;16.30;;;17.70;85.20;;;;;;6401006;22;19998;-82
2022/10/14 07:34:03;;;;;;;26.17;17.15;;;17.80;84.00;;;;;;6392267;22;20373;-75
2022/10/14 07:36:29;;;;;;;29.77;17.95;;;17.90;83.70;;;;;;6396836;22;20043;-82
2022/10/14 07:38:54;;;;;;;29.48;20.40;;;18.00;83.50;;;;;;6399000;22;20009;-74
2022/10/14 07:41:23;;;;;;;28.48;18.95;;;18.00;83.30;;;;;;6372784;22;20055;-74
2022/10/14 07:43:54;;;;;;;29.55;18.40;;;18.00;83.00;;;;;;6401422;22;20006;-74
2022/10/14 07:46:31;;;;;;;26.30;19.15;;;18.10;83.50;;;;;;6401316;22;20070;-82
2022/10/14 07:49:23;;;;;;;24.88;18.17;;;18.10;83.10;;;;;;6400849;22;20032;-74
2022/10/14 07:51:49;;;;;;;31.83;19.55;;;18.20;82.70;;;;;;6396322;22;20067;-74
2022/10/14 07:54:19;;;;;;;29.45;19.52;;;18.20;82.90;;;;;;6401230;22;19997;-74
2022/10/14 07:56:49;;;;;;;28.17;18.08;;;18.20;82.70;;;;;;6401573;22;20005;-73
2022/10/14 07:59:17;;;;;;;25.95;16.85;;;18.40;82.80;;;;;;6402208;22;19994;-81
2022/10/14 08:01:49;;;;;;;31.08;19.35;;;18.50;82.90;;;;;;6401493;22;20345;-81
2022/10/14 08:04:15;;;;;;;27.60;17.88;;;18.70;82.50;;;;;;6400977;22;20001;-74
2022/10/14 08:06:42;;;;;;;22.10;15.93;;;18.80;82.20;;;;;;6401918;22;19998;-73
2022/10/14 08:09:09;;;;;;;27.65;18.58;;;19.00;81.80;;;;;;6400852;22;20073;-82
2022/10/14 08:11:35;;;;;;;21.80;15.70;;;19.10;81.30;;;;;;6398550;22;20001;-73
2022/10/14 08:14:01;;;;;;;23.20;14.68;;;19.30;81.10;;;;;;6401555;22;20005;-73
2022/10/14 08:16:29;;;;;;;20.65;14.88;;;19.40;81.20;;;;;;6401466;22;20115;-75
2022/10/14 08:18:57;;;;;;;21.17;14.15;;;19.60;80.90;;;;;;6399430;22;19998;-74
2022/10/14 08:21:23;;;;;;;21.63;14.15;;;19.80;80.70;;;;;;6346669;22;20016;-75
2022/10/14 08:23:49;;;;;;;21.60;14.55;;;19.90;78.80;;;;;;6401161;22;20002;-74
2022/10/14 08:26:18;;;;;;;21.58;14.82;;;20.10;79.30;;;;;;6399963;22;20058;-75
2022/10/14 08:28:43;;;;;;;20.48;15.25;;;20.30;78.20;;;;;;6370289;22;20522;-74
2022/10/14 08:31:09;;;;;;;24.40;14.70;;;20.40;78.60;;;;;;6399682;22;19998;-74
2022/10/14 08:33:34;;;;;;;21.55;15.35;;;20.60;78.50;;;;;;6400424;22;20458;-74
2022/10/14 08:36:00;;;;;;;18.92;14.32;;;20.70;77.10;;;;;;6401014;22;20033;-74
2022/10/14 08:38:27;;;;;;;22.08;16.38;;;20.90;77.10;;;;;;6399731;22;20350;-74
2022/10/14 08:41:13;;;;;;;22.75;17.67;;;21.00;76.40;;;;;;6401455;22;20058;-79
2022/10/14 08:43:57;;;;;;;23.88;17.63;;;21.10;75.80;;;;;;6401095;22;20297;-74
2022/10/14 08:46:40;;;;;;;23.65;16.15;;;21.20;75.60;;;;;;6400171;22;20002;-74
2022/10/14 08:49:14;;;;;;;29.02;19.88;;;21.40;75.10;;;;;;6397956;22;20006;-74
2022/10/14 08:51:43;;;;;;;20.83;15.63;;;21.50;74.40;;;;;;6400449;22;20006;-73
2022/10/14 08:54:21;;;;;;;27.45;19.48;;;21.60;74.70;;;;;;6401441;22;20028;-74
2022/10/14 08:56:47;;;;;;;23.42;17.10;;;21.60;73.00;;;;;;6399654;22;19994;-74
2022/10/14 08:59:15;;;;;;;23.55;16.95;;;21.70;73.80;;;;;;6393668;22;19998;-74
2022/10/14 09:01:52;;;;;;;19.50;16.02;;;21.90;74.40;;;;;;6397804;22;20095;-81
2022/10/14 09:04:18;;;;;;;22.27;16.52;;;22.00;73.50;;;;;;6397039;22;20007;-81
2022/10/14 09:06:47;;;;;;;19.13;14.95;;;22.10;72.80;;;;;;6400112;22;19998;-81
2022/10/14 09:09:22;;;;;;;20.10;16.33;;;22.30;73.00;;;;;;6400364;22;20004;-81
2022/10/14 09:11:53;;;;;;;24.77;16.88;;;22.50;72.60;;;;;;6400313;22;20488;-80
2022/10/14 09:14:24;;;;;;;23.00;17.15;;;22.60;71.10;;;;;;6401636;22;20039;-74
2022/10/14 09:16:57;;;;;;;21.95;15.98;;;22.60;70.80;;;;;;6401861;22;20072;-74
2022/10/14 09:19:28;;;;;;;22.35;16.73;;;22.70;71.10;;;;;;6373119;22;20002;-83
2022/10/14 09:21:54;;;;;;;28.00;19.83;;;22.80;70.70;;;;;;6401447;22;20577;-74
2022/10/14 09:24:36;;;;;;;22.05;17.55;;;22.90;68.50;;;;;;6402225;22;20009;-75
2022/10/14 09:27:05;;;;;;;22.40;17.50;;;22.90;69.90;;;;;;6402546;22;20005;-75
2022/10/14 09:29:40;;;;;;;23.45;16.40;;;23.10;70.10;;;;;;6401261;22;20313;-74
2022/10/14 09:32:11;;;;;;;20.15;16.58;;;23.20;68.30;;;;;;6401509;22;20027;-83
2022/10/14 09:34:49;;;;;;;24.95;17.85;;;23.30;68.80;;;;;;6401569;22;20006;-82
2022/10/14 09:37:23;;;;;;;20.83;16.52;;;23.50;69.00;;;;;;6401890;22;20002;-84
2022/10/14 09:39:50;;;;;;;23.50;17.70;;;23.60;68.50;;;;;;6403037;22;20025;-83
2022/10/14 09:42:25;;;;;;;22.58;17.38;;;23.70;68.50;;;;;;6374882;22;20006;-82
2022/10/14 09:45:44;;;;;;;25.05;19.13;;;23.80;67.90;;;;;;6402626;22;20026;-83
2022/10/14 09:48:31;;;;;;;23.77;18.67;;;23.80;67.20;;;;;;6304232;22;20003;-82
2022/10/14 09:50:59;;;;;;;22.55;17.88;;;24.00;67.20;;;;;;6302730;22;20117;-82
2022/10/14 09:53:40;;;;;;;22.95;17.77;;;23.90;66.30;;;;;;6374896;22;20743;-82
2022/10/14 09:56:08;;;;;;;22.45;17.67;;;24.00;66.50;;;;;;6402580;22;20005;-82
2022/10/14 09:58:42;;;;;;;23.88;16.67;;;24.10;66.70;;;;;;6401751;22;20435;-82
2022/10/14 10:01:18;;;;;;;24.63;18.45;;;24.20;65.80;;;;;;6401936;22;20081;-82
2022/10/14 10:03:45;;;;;;;23.38;18.15;;;24.40;66.00;;;;;;6403248;22;20444;-81
2022/10/14 10:06:20;;;;;;;20.42;16.20;;;24.40;64.90;;;;;;6403016;22;20420;-82
2022/10/14 10:09:00;;;;;;;24.08;17.95;;;24.50;64.60;;;;;;6403198;22;20002;-75
2022/10/14 10:11:37;;;;;;;25.17;19.38;;;24.60;64.90;;;;;;6402061;22;20081;-75
2022/10/14 10:14:34;;;;;;;23.08;17.85;;;24.70;62.80;;;;;;6402388;22;19998;-76
2022/10/14 10:17:16;;;;;;;25.00;17.67;;;24.70;63.10;;;;;;6355454;22;20499;-83
2022/10/14 10:20:07;;;;;;;28.08;16.80;;;24.70;62.80;;;;;;6402559;22;20073;-83
2022/10/14 10:22:37;;;;;;;26.00;18.48;;;24.80;63.40;;;;;;6402642;22;20006;-84
2022/10/14 10:25:03;;;;;;;24.38;17.63;;;24.90;62.20;;;;;;6402896;22;20009;-83
2022/10/14 10:27:38;;;;;;;23.42;18.15;;;25.00;63.00;;;;;;6402633;22;20336;-83
2022/10/14 10:30:16;;;;;;;24.92;20.40;;;25.10;62.20;;;;;;6402682;22;20002;-84
2022/10/14 10:32:48;;;;;;;22.27;17.25;;;25.30;61.80;;;;;;6402459;22;20085;-84
2022/10/14 10:35:46;;;;;;;25.88;19.63;;;25.40;61.70;;;;;;6402385;22;20450;-84
2022/10/14 10:38:23;;;;;;;29.20;21.63;;;25.50;61.50;;;;;;6402525;22;20001;-84
2022/10/14 10:41:15;;;;;;;23.00;19.63;;;25.40;61.00;;;;;;6401359;22;20067;-84
2022/10/14 10:43:52;;;;;;;25.77;20.27;;;25.40;60.60;;;;;;6401927;22;20365;-85
2022/10/14 10:47:10;;;;;;;26.27;19.90;;;25.50;61.60;;;;;;6401535;22;20009;-84
2022/10/14 10:50:08;;;;;;;25.35;19.98;;;25.60;60.50;;;;;;6395398;22;20081;-84
2022/10/14 10:52:55;;;;;;;24.45;19.95;;;25.70;59.80;;;;;;6368181;22;20049;-93
2022/10/14 10:56:00;;;;;;;27.85;20.48;;;25.80;60.50;;;;;;6377276;22;20028;-94
2022/10/14 10:58:55;;;;;;;24.33;19.38;;;25.90;59.80;;;;;;6347228;22;20024;-93
2022/10/14 11:02:02;;;;;;;23.65;20.23;;;26.00;59.90;;;;;;6345635;22;20037;-96
2022/10/14 11:04:50;;;;;;;24.30;19.83;;;26.10;59.00;;;;;;6372410;22;20025;-94
2022/10/14 11:13:47;;;;;;;27.20;22.38;;;26.20;58.60;;;;;;6372539;22;19913;-94
2022/10/14 11:16:36;;;;;;;31.15;23.33;;;26.30;58.00;;;;;;6343510;22;20440;-93
2022/10/14 11:19:11;;;;;;;24.70;19.70;;;26.30;57.30;;;;;;6371444;22;20005;-95
2022/10/14 11:22:19;;;;;;;28.13;22.98;;;26.40;57.80;;;;;;6368376;22;20002;-94
2022/10/14 11:24:57;;;;;;;25.05;21.02;;;26.70;57.40;;;;;;6367762;22;20073;-94
2022/10/14 11:27:44;;;;;;;26.98;19.90;;;26.80;56.40;;;;;;6368715;22;20293;-93
2022/10/14 11:31:01;;;;;;;25.38;21.35;;;27.00;55.60;;;;;;6370355;22;20056;-93
2022/10/14 11:34:03;;;;;;;27.23;21.83;;;27.20;55.80;;;;;;6283183;22;20022;-93
2022/10/14 11:36:34;;;;;;;25.90;22.30;;;27.60;56.00;;;;;;6342895;22;20037;-94
2022/10/14 11:39:28;;;;;;;24.77;21.88;;;28.00;53.80;;;;;;6371230;22;20072;-95
2022/10/14 11:42:27;;;;;;;30.15;23.38;;;28.30;53.60;;;;;;6370170;22;20006;-92
2022/10/14 11:45:45;;;;;;;24.92;21.55;;;28.40;53.00;;;;;;6341935;22;20059;-93
2022/10/14 11:48:29;;;;;;;25.38;21.50;;;28.30;52.00;;;;;;6213231;23;20020;-93
2022/10/14 11:51:12;;;;;;;27.27;21.17;;;28.30;52.70;;;;;;6212030;23;20438;-92
2022/10/14 11:53:56;;;;;;;25.73;19.58;;;28.80;54.00;;;;;;6325730;22;20063;-93
2022/10/14 11:56:54;;;;;;;23.90;20.33;;;29.00;51.30;;;;;;6343801;22;20033;-93
2022/10/14 11:59:48;;;;;;;24.45;21.83;;;29.20;50.40;;;;;;6371741;22;20002;-93
2022/10/14 12:02:50;;;;;;;26.73;21.17;;;29.30;50.80;;;;;;6342215;22;20002;-93
2022/10/14 12:06:05;;;;;;;29.50;23.05;;;29.30;50.70;;;;;;6344308;22;20400;-93
2022/10/14 12:09:20;;;;;;;26.10;19.70;;;29.10;50.30;;;;;;6212709;23;20490;-93
2022/10/14 12:12:02;;;;;;;30.95;22.52;;;29.10;50.80;;;;;;6173331;23;20027;-94
2022/10/14 12:14:34;;;;;;;28.58;22.25;;;29.20;51.40;;;;;;6211656;23;20027;-93
2022/10/14 12:17:14;;;;;;;24.90;19.73;;;29.10;50.70;;;;;;6316122;22;20009;-94
2022/10/14 12:19:41;;;;;;;24.25;20.30;;;28.90;50.00;;;;;;6344826;22;20497;-95
2022/10/14 12:22:28;;;;;;;25.08;19.73;;;28.70;50.50;;;;;;6343383;22;20013;-94
2022/10/14 12:32:08;;;;;;;29.38;21.85;;;28.40;51.20;;;;;;6371817;22;20094;-96
2022/10/14 12:34:39;;;;;;;24.70;20.40;;;28.40;51.40;;;;;;6348077;22;20002;-96
2022/10/14 12:37:45;;;;;;;32.50;23.48;;;28.30;51.90;;;;;;6371731;22;19999;-94
2022/10/14 12:40:29;;;;;;;25.55;22.70;;;28.40;52.20;;;;;;6368022;22;20002;-96
2022/10/14 12:43:20;;;;;;;25.48;19.25;;;28.30;49.90;;;;;;6340993;22;20016;-96
2022/10/14 12:46:12;;;;;;;26.73;22.15;;;28.10;50.60;;;;;;6341120;22;20055;-95
2022/10/14 12:48:54;;;;;;;24.95;19.90;;;28.30;51.40;;;;;;6334679;22;20128;-94
2022/10/14 12:51:26;;;;;;;25.45;19.83;;;28.40;51.40;;;;;;6371576;22;20033;-94
2022/10/14 12:54:24;;;;;;;29.55;22.88;;;28.30;50.80;;;;;;6339322;22;20730;-95
2022/10/14 12:57:25;;;;;;;25.65;20.23;;;28.00;51.10;;;;;;6369716;22;20002;-95
2022/10/14 12:59:52;;;;;;;25.60;18.95;;;27.50;51.60;;;;;;6362964;22;20040;-96
2022/10/14 13:02:43;;;;;;;24.15;19.83;;;27.00;52.10;;;;;;6373501;22;20034;-94
2022/10/14 13:05:37;;;;;;;30.25;20.17;;;26.50;52.70;;;;;;6371107;22;20025;-95
2022/10/14 13:08:22;;;;;;;24.42;19.98;;;26.20;54.50;;;;;;6358190;22;20002;-95
2022/10/14 13:11:07;;;;;;;24.98;19.73;;;25.80;55.00;;;;;;6346191;22;20006;-95
2022/10/14 13:13:40;;;;;;;24.33;18.33;;;25.60;55.60;;;;;;6346041;22;20002;-95